(°C)
19°
19°
19°
19°
19°
20°
21°
(°C)
21°
20°
20°
20°
21°
21°
22°
ЮЮЗ
ЮЗ
ЮЗ
ЗЮЗ
ЗЮЗ
ЗЮЗ
ЗЮЗ
(km/h)
6-18
6-17
6-17
6-16
7-16
8-15
8-16
(mm)
1.7
1.3
0.6
0
0
0
0
(%)
85
74
62
43
43
43
44

Издигане на слънцето

/ -24°
sun-icon
UV 7
05:37
20:22
Намаляващ полумесец (338°)
04:32
18:50

METAR за Wilmington Manor (KILG)

Час Условия Температура/
Точка на оросяване
Вятър Видимост Времето Облаци Налягане Промяна Сурови
IFR 18.3°C / 17.2°C 220º variable 005º to 010º 3kt >10km - Broken Clouds 800ft
Broken Clouds 3500ft
- KILG 280636Z AUTO 22003KT 10SM BKN008 BKN035 18/17 A2974 RMK AO2 CIG 005V010 T01830172
VFR 18.9°C / 17.8°C variable 0kt >10km - Scattered Clouds 500ft 1006 - KILG 280551Z AUTO 00000KT 10SM SCT005 19/18 A2974 RMK AO2 SLP069 60021 T01890178 10200 20189 56015
VFR 18.9°C / 18.3°C 170º 5kt >10km - Few Clouds 500ft - KILG 280518Z AUTO 17005KT 10SM FEW005 19/18 A2973 RMK AO2 T01890183
IFR 19.4°C / 18.9°C 220º variable 002º to 009º 8kt >10km 0.13mm precipitation Overcast 500ft 1007 - KILG 280451Z AUTO 22008KT 9SM OVC005 19/19 A2975 RMK AO2 RAE0354 CIG 002V009 SLP074 P0000 T01940189 402440183
LIFR 19.4°C / 18.9°C 170º 5kt >10km 0.13mm precipitation Broken Clouds 400ft
Overcast 11000ft
- KILG 280403Z AUTO 17005KT 8SM BKN004 OVC110 19/19 A2975 RMK AO2 LTG DSNT NE RAE0354 P0000 T01940189
IFR 19.4°C / 18.9°C 160º 6kt >10km Light Rain 4.57mm precipitation Broken Clouds 500ft
Broken Clouds 7500ft
Overcast 11000ft
1007 - KILG 280351Z AUTO 16006KT 10SM -RA BKN005 BKN075 OVC110 19/19 A2975 RMK AO2 LTG DSNT NE AND E TSB0252E11 SLP075 P0018 T01940189
IFR 20°C / 18.9°C 150º 6kt >10km Light Rain 4.32mm precipitation Broken Clouds 500ft
Broken Clouds 1000ft
Overcast 7500ft
- KILG 280334Z AUTO 15006KT 9SM -RA BKN005 BKN010 OVC075 20/19 A2976 RMK AO2 LTG DSNT NE AND E TSB0252E11 P0017 T02000189
IFR 20°C / 18.9°C 130º 4kt 4800m in the Vicinity Thunderstorm Rain Mist 3.56mm precipitation Broken Clouds 500ft
Broken Clouds 1300ft
Overcast 5000ft
- KILG 280311Z AUTO 13004KT 3SM VCTS RA BR BKN005 BKN013 OVC050 20/19 A2977 RMK AO2 LTG DSNT ALQDS TSB0252E11 P0014 T02000189
IFR 20°C / 18.9°C 210º 4kt 2800m Heavy Thunderstorm Rain Mist 0.76mm precipitation Scattered Clouds 600ft
Broken Clouds 1400ft
Overcast 5000ft
- KILG 280255Z 21004KT 1 3/4SM +TSRA BR SCT006 BKN014 OVC050 20/19 A2978 RMK AO2 LTG DSNT ALQDS TSB52 P0003 T02000189
IFR 20°C / 18.9°C 230º 4kt 4000m in the Vicinity Thunderstorm Heavy Rain Mist 0.76mm precipitation Scattered Clouds 600ft
Broken Clouds 2000ft
Overcast 5000ft
1008 - KILG 280251Z 23004KT 2 1/2SM VCTS +RA BR SCT006 BKN020 OVC050 20/19 A2978 RMK AO2 LTG DSNT ALQDS RAB13 TSB32E47 SLP084 P0003 60003 T02000189 56011
VFR 20°C / 18.9°C 140º 4kt >10km Light Thunderstorm Rain 0.13mm precipitation Scattered Clouds 900ft
Broken Clouds 3900ft
Overcast 5000ft
- KILG 280232Z 14004KT 9SM -TSRA SCT009 BKN039 OVC050 20/19 A2978 RMK AO2 LTG DSNT S-NW RAB13 TSB32 P0000 T02000189
IFR 20°C / 18.9°C 140º 8kt >10km - Overcast 500ft 1008 - KILG 280151Z 14008KT 10SM OVC005 20/19 A2979 RMK AO2 LTG DSNT SW SLP087 T02000189
IFR 20°C / 18.9°C 150º 7kt >10km - Broken Clouds 700ft
Overcast 1200ft
- KILG 280142Z 15007KT 10SM BKN007 OVC012 20/19 A2980 RMK AO2 T02000189
MVFR 20°C / 18.9°C 140º 9kt >10km - Scattered Clouds 700ft
Broken Clouds 1100ft
Overcast 1700ft
- KILG 280107Z 14009KT 10SM SCT007 BKN011 OVC017 20/19 A2980 RMK AO2 T02000189
MVFR 20°C / 18.3°C 150º 9kt >10km - Scattered Clouds 700ft
Scattered Clouds 1100ft
Overcast 1700ft
1009 - KILG 280051Z 15009KT 10SM SCT007 SCT011 OVC017 20/18 A2980 RMK AO2 SLP090 T02000183
MVFR 20°C / 18.3°C 160º 11kt >10km - Scattered Clouds 800ft
Overcast 1600ft
- KILG 280013Z 16011KT 10SM SCT008 OVC016 20/18 A2981 RMK AO2 T02000183
IFR 20°C / 18.3°C 160º variable 007º to 011º 13kt >10km - Overcast 800ft 1009 - KILG 272351Z 16013KT 10SM OVC008 20/18 A2981 RMK AO2 CIG 007V011 SLP095 60015 T02000183 10244 20200 55005
IFR 20°C / 18.3°C 150º variable 007º to 011º 11kt >10km - Broken Clouds 800ft
Overcast 1600ft
- KILG 272344Z 15011KT 10SM BKN008 OVC016 20/18 A2981 RMK AO2 CIG 007V011 T02000183
MVFR 20°C / 18.3°C 160º variable 008º to 012º 12kt >10km - Broken Clouds 1000ft
Overcast 1600ft
- KILG 272329Z 16012KT 10SM BKN010 OVC016 20/18 A2981 RMK AO2 CIG 008V012 T02000183
MVFR 20.6°C / 18.3°C 160º 14kt >10km - Scattered Clouds 900ft
Overcast 1600ft
- KILG 272302Z 16014KT 10SM SCT009 OVC016 21/18 A2980 RMK AO2 T02060183
MVFR 20.6°C / 18.3°C 160º 11kt >10km - Overcast 1700ft 1009 - KILG 272251Z 16011KT 10SM OVC017 21/18 A2981 RMK AO2 SLP093 T02060183
MVFR 20.6°C / 18.9°C 160º 11kt >10km - Few Clouds 800ft
Broken Clouds 1500ft
- KILG 272224Z 16011KT 10SM FEW008 BKN015 21/19 A2980 RMK AO2 T02060189
VFR 20.6°C / 18.3°C 170º 10kt >10km - Clear 1009 - KILG 272151Z 17010KT 10SM CLR 21/18 A2981 RMK AO2 SLP095 T02060183
VFR 20.6°C / 18.3°C 170º 11kt >10km 0.13mm precipitation Clear 1009 - KILG 272051Z 17011KT 10SM CLR 21/18 A2983 RMK AO2 RAE22 SLP099 P0000 60015 T02060183 58013

IFR

18.3°C / 17.2°C

[Още]
Вятър 220º variable 005º to 010º 3kt
Видимост >10km
Времето -
Облаци Broken Clouds 800ft
Broken Clouds 3500ft
Налягане
Промяна -
Сурови KILG 280636Z AUTO 22003KT 10SM BKN008 BKN035 18/17 A2974 RMK AO2 CIG 005V010 T01830172

VFR

18.9°C / 17.8°C

[Още]
Вятър variable 0kt
Видимост >10km
Времето -
Облаци Scattered Clouds 500ft
Налягане 1006
Промяна -
Сурови KILG 280551Z AUTO 00000KT 10SM SCT005 19/18 A2974 RMK AO2 SLP069 60021 T01890178 10200 20189 56015

VFR

18.9°C / 18.3°C

[Още]
Вятър 170º 5kt
Видимост >10km
Времето -
Облаци Few Clouds 500ft
Налягане
Промяна -
Сурови KILG 280518Z AUTO 17005KT 10SM FEW005 19/18 A2973 RMK AO2 T01890183

IFR

19.4°C / 18.9°C

[Още]
Вятър 220º variable 002º to 009º 8kt
Видимост >10km
Времето 0.13mm precipitation
Облаци Overcast 500ft
Налягане 1007
Промяна -
Сурови KILG 280451Z AUTO 22008KT 9SM OVC005 19/19 A2975 RMK AO2 RAE0354 CIG 002V009 SLP074 P0000 T01940189 402440183

LIFR

19.4°C / 18.9°C

[Още]
Вятър 170º 5kt
Видимост >10km
Времето 0.13mm precipitation
Облаци Broken Clouds 400ft
Overcast 11000ft
Налягане
Промяна -
Сурови KILG 280403Z AUTO 17005KT 8SM BKN004 OVC110 19/19 A2975 RMK AO2 LTG DSNT NE RAE0354 P0000 T01940189

IFR

19.4°C / 18.9°C

[Още]
Вятър 160º 6kt
Видимост >10km
Времето Light Rain 4.57mm precipitation
Облаци Broken Clouds 500ft
Broken Clouds 7500ft
Overcast 11000ft
Налягане 1007
Промяна -
Сурови KILG 280351Z AUTO 16006KT 10SM -RA BKN005 BKN075 OVC110 19/19 A2975 RMK AO2 LTG DSNT NE AND E TSB0252E11 SLP075 P0018 T01940189

IFR

20°C / 18.9°C

[Още]
Вятър 150º 6kt
Видимост >10km
Времето Light Rain 4.32mm precipitation
Облаци Broken Clouds 500ft
Broken Clouds 1000ft
Overcast 7500ft
Налягане
Промяна -
Сурови KILG 280334Z AUTO 15006KT 9SM -RA BKN005 BKN010 OVC075 20/19 A2976 RMK AO2 LTG DSNT NE AND E TSB0252E11 P0017 T02000189

IFR

20°C / 18.9°C

[Още]
Вятър 130º 4kt
Видимост 4800m
Времето in the Vicinity Thunderstorm Rain Mist 3.56mm precipitation
Облаци Broken Clouds 500ft
Broken Clouds 1300ft
Overcast 5000ft
Налягане
Промяна -
Сурови KILG 280311Z AUTO 13004KT 3SM VCTS RA BR BKN005 BKN013 OVC050 20/19 A2977 RMK AO2 LTG DSNT ALQDS TSB0252E11 P0014 T02000189

IFR

20°C / 18.9°C

[Още]
Вятър 210º 4kt
Видимост 2800m
Времето Heavy Thunderstorm Rain Mist 0.76mm precipitation
Облаци Scattered Clouds 600ft
Broken Clouds 1400ft
Overcast 5000ft
Налягане
Промяна -
Сурови KILG 280255Z 21004KT 1 3/4SM +TSRA BR SCT006 BKN014 OVC050 20/19 A2978 RMK AO2 LTG DSNT ALQDS TSB52 P0003 T02000189

IFR

20°C / 18.9°C

[Още]
Вятър 230º 4kt
Видимост 4000m
Времето in the Vicinity Thunderstorm Heavy Rain Mist 0.76mm precipitation
Облаци Scattered Clouds 600ft
Broken Clouds 2000ft
Overcast 5000ft
Налягане 1008
Промяна -
Сурови KILG 280251Z 23004KT 2 1/2SM VCTS +RA BR SCT006 BKN020 OVC050 20/19 A2978 RMK AO2 LTG DSNT ALQDS RAB13 TSB32E47 SLP084 P0003 60003 T02000189 56011

VFR

20°C / 18.9°C

[Още]
Вятър 140º 4kt
Видимост >10km
Времето Light Thunderstorm Rain 0.13mm precipitation
Облаци Scattered Clouds 900ft
Broken Clouds 3900ft
Overcast 5000ft
Налягане
Промяна -
Сурови KILG 280232Z 14004KT 9SM -TSRA SCT009 BKN039 OVC050 20/19 A2978 RMK AO2 LTG DSNT S-NW RAB13 TSB32 P0000 T02000189

IFR

20°C / 18.9°C

[Още]
Вятър 140º 8kt
Видимост >10km
Времето -
Облаци Overcast 500ft
Налягане 1008
Промяна -
Сурови KILG 280151Z 14008KT 10SM OVC005 20/19 A2979 RMK AO2 LTG DSNT SW SLP087 T02000189

IFR

20°C / 18.9°C

[Още]
Вятър 150º 7kt
Видимост >10km
Времето -
Облаци Broken Clouds 700ft
Overcast 1200ft
Налягане
Промяна -
Сурови KILG 280142Z 15007KT 10SM BKN007 OVC012 20/19 A2980 RMK AO2 T02000189

MVFR

20°C / 18.9°C

[Още]
Вятър 140º 9kt
Видимост >10km
Времето -
Облаци Scattered Clouds 700ft
Broken Clouds 1100ft
Overcast 1700ft
Налягане
Промяна -
Сурови KILG 280107Z 14009KT 10SM SCT007 BKN011 OVC017 20/19 A2980 RMK AO2 T02000189

MVFR

20°C / 18.3°C

[Още]
Вятър 150º 9kt
Видимост >10km
Времето -
Облаци Scattered Clouds 700ft
Scattered Clouds 1100ft
Overcast 1700ft
Налягане 1009
Промяна -
Сурови KILG 280051Z 15009KT 10SM SCT007 SCT011 OVC017 20/18 A2980 RMK AO2 SLP090 T02000183

MVFR

20°C / 18.3°C

[Още]
Вятър 160º 11kt
Видимост >10km
Времето -
Облаци Scattered Clouds 800ft
Overcast 1600ft
Налягане
Промяна -
Сурови KILG 280013Z 16011KT 10SM SCT008 OVC016 20/18 A2981 RMK AO2 T02000183

IFR

20°C / 18.3°C

[Още]
Вятър 160º variable 007º to 011º 13kt
Видимост >10km
Времето -
Облаци Overcast 800ft
Налягане 1009
Промяна -
Сурови KILG 272351Z 16013KT 10SM OVC008 20/18 A2981 RMK AO2 CIG 007V011 SLP095 60015 T02000183 10244 20200 55005

IFR

20°C / 18.3°C

[Още]
Вятър 150º variable 007º to 011º 11kt
Видимост >10km
Времето -
Облаци Broken Clouds 800ft
Overcast 1600ft
Налягане
Промяна -
Сурови KILG 272344Z 15011KT 10SM BKN008 OVC016 20/18 A2981 RMK AO2 CIG 007V011 T02000183

MVFR

20°C / 18.3°C

[Още]
Вятър 160º variable 008º to 012º 12kt
Видимост >10km
Времето -
Облаци Broken Clouds 1000ft
Overcast 1600ft
Налягане
Промяна -
Сурови KILG 272329Z 16012KT 10SM BKN010 OVC016 20/18 A2981 RMK AO2 CIG 008V012 T02000183

MVFR

20.6°C / 18.3°C

[Още]
Вятър 160º 14kt
Видимост >10km
Времето -
Облаци Scattered Clouds 900ft
Overcast 1600ft
Налягане
Промяна -
Сурови KILG 272302Z 16014KT 10SM SCT009 OVC016 21/18 A2980 RMK AO2 T02060183

MVFR

20.6°C / 18.3°C

[Още]
Вятър 160º 11kt
Видимост >10km
Времето -
Облаци Overcast 1700ft
Налягане 1009
Промяна -
Сурови KILG 272251Z 16011KT 10SM OVC017 21/18 A2981 RMK AO2 SLP093 T02060183

MVFR

20.6°C / 18.9°C

[Още]
Вятър 160º 11kt
Видимост >10km
Времето -
Облаци Few Clouds 800ft
Broken Clouds 1500ft
Налягане
Промяна -
Сурови KILG 272224Z 16011KT 10SM FEW008 BKN015 21/19 A2980 RMK AO2 T02060189

VFR

20.6°C / 18.3°C

[Още]
Вятър 170º 10kt
Видимост >10km
Времето -
Облаци Clear
Налягане 1009
Промяна -
Сурови KILG 272151Z 17010KT 10SM CLR 21/18 A2981 RMK AO2 SLP095 T02060183

VFR

20.6°C / 18.3°C

[Още]
Вятър 170º 11kt
Видимост >10km
Времето 0.13mm precipitation
Облаци Clear
Налягане 1009
Промяна -
Сурови KILG 272051Z 17011KT 10SM CLR 21/18 A2983 RMK AO2 RAE22 SLP099 P0000 60015 T02060183 58013

TAF за Wilmington Manor (KILG)

From till


From till Wind 200º 5kt. Visibility 10km or more. Scattered Clouds 500ft. Broken Clouds 2500ft.
Temporarly from till Visibility 8000m. Mist . Broken Clouds 800ft.
From till Wind variable 3kt. Visibility 8000m. Mist . Broken Clouds 2000ft.
From till Wind 260º 5kt. Visibility 10km or more. Broken Clouds 4000ft.
From till Wind 290º 12kt. Visibility 10km or more. in the Vicinity Showers . Scattered Clouds 5000ft.
From till Wind 310º 5kt. Visibility 10km or more. Few Clouds 8000ft.

Сурови: KILG 280530Z 2806/2906 20005KT P6SM SCT005 BKN025 TEMPO 2806/2808 5SM BR BKN008 FM280800 VRB03KT 5SM BR BKN020 FM281000 26005KT P6SM BKN040 FM281500 29012KT P6SM VCSH SCT050 FM282300 31005KT P6SM FEW080

Радар и валежи в момента за Wilmington Manor

Ситен дъжд
Лек
Умерен
Тежък
Много тежък
Аве

Маркерът за локация обозначава Wilmington Manor. Анимацията показва Радара за валежи за последния час, както и прогноза за 1h. Дъждът или лекият сняг може да са невидими за радара. Интензивността на валежите е обозначена с цветни кодове, вариращи от светлосиньо до оранжево.

Актуални сателитни изображения за Wilmington Manor, САЩ

Маркерът за локация е поставен върху Wilmington Manor. [Още]

Сателитното изображение в реално време съчетава видимата светлина през деня с инфрачервеното лъчение през нощта. През нощта изображението не е тъмно, тъй като инфрачервеното лъчение може да открива температурни разлики. За съжаление ниските облаци и мъглата са трудни за разграничаване от температурите на земята и затова могат да бъдат почти невидими през нощта. Сателитните изображения на Meteosat за Европа се актуализират в реално време на всеки 5 минути. Изображенията GOES-16/GOES-17 (Северна и Южна Америка) и Химавари (Азия) се актуализират на всеки 10 минути.

Върнете се в началото